Time,TemperatureF,DewpointF,PressureIn,WindDirection,WindDirectionDegrees,WindSpeedMPH,WindSpeedGustMPH,Humidity,HourlyPrecipIn,Conditions,Clouds,dailyrainin,SoftwareType,DateUTC
2013-09-07 00:02:00,65.8,64.6,30.04,SSW,197,0.0,0.0,96,0.00,,,0.00,Wunderground v.1.15,2013-09-07 05:02:00,
2013-09-07 00:08:00,65.7,64.5,30.04,SSW,197,0.0,0.0,96,0.00,,,0.00,Wunderground v.1.15,2013-09-07 05:08:00,
2013-09-07 00:13:00,65.5,64.3,30.04,SSW,197,0.0,0.0,96,0.00,,,0.00,Wunderground v.1.15,2013-09-07 05:13:00,
2013-09-07 00:18:00,65.5,64.3,30.04,SSW,197,0.0,0.0,96,0.00,,,0.00,Wunderground v.1.15,2013-09-07 05:18:00,
2013-09-07 00:23:00,65.8,64.9,30.05,SSW,197,0.0,0.0,97,0.00,,,0.00,Wunderground v.1.15,2013-09-07 05:23:00,
2013-09-07 00:28:00,65.9,65.0,30.05,SSW,197,0.0,0.0,97,0.00,,,0.00,Wunderground v.1.15,2013-09-07 05:28:00,
2013-09-07 00:34:00,65.8,64.6,30.04,SSW,197,0.0,0.0,96,0.00,,,0.00,Wunderground v.1.15,2013-09-07 05:34:00,
2013-09-07 00:39:00,65.8,64.6,30.04,SSW,197,0.0,0.0,96,0.00,,,0.00,Wunderground v.1.15,2013-09-07 05:39:00,
2013-09-07 00:44:00,65.8,64.9,30.04,SSW,197,0.0,0.0,97,0.00,,,0.00,Wunderground v.1.15,2013-09-07 05:44:00,
2013-09-07 00:49:00,65.8,64.9,30.04,SSW,197,0.0,0.0,97,0.00,,,0.00,Wunderground v.1.15,2013-09-07 05:49:00,
2013-09-07 00:55:00,65.6,64.4,30.04,SSW,197,0.0,0.0,96,0.00,,,0.00,Wunderground v.1.15,2013-09-07 05:55:00,
2013-09-07 01:00:00,64.9,63.7,30.04,SSW,197,0.0,0.0,96,0.00,,,0.00,Wunderground v.1.15,2013-09-07 06:00:00,
2013-09-07 01:06:00,64.5,63.3,30.04,SSW,197,0.0,0.0,96,0.00,,,0.00,Wunderground v.1.15,2013-09-07 06:06:00,
2013-09-07 01:11:00,64.2,63.0,30.04,SSW,197,0.0,0.0,96,0.00,,,0.00,Wunderground v.1.15,2013-09-07 06:11:00,
2013-09-07 01:17:00,64.3,63.4,30.04,SSW,197,0.0,0.0,97,0.00,,,0.00,Wunderground v.1.15,2013-09-07 06:17:00,
2013-09-07 01:22:00,64.1,63.2,30.04,SSW,197,0.0,0.0,97,0.00,,,0.00,Wunderground v.1.15,2013-09-07 06:22:00,
2013-09-07 01:28:00,63.9,63.0,30.04,SSW,197,0.0,0.0,97,0.00,,,0.00,Wunderground v.1.15,2013-09-07 06:28:00,
2013-09-07 01:33:00,64.0,63.1,30.04,SSW,197,0.0,0.0,97,0.00,,,0.00,Wunderground v.1.15,2013-09-07 06:33:00,
2013-09-07 01:39:00,63.7,62.8,30.03,SSW,197,0.0,0.0,97,0.00,,,0.00,Wunderground v.1.15,2013-09-07 06:39:00,
2013-09-07 01:44:00,63.6,62.7,30.03,SSW,197,0.0,0.0,97,0.00,,,0.00,Wunderground v.1.15,2013-09-07 06:44:00,
2013-09-07 01:49:00,63.6,62.7,30.03,SSW,197,0.0,0.0,97,0.00,,,0.00,Wunderground v.1.15,2013-09-07 06:49:00,
2013-09-07 01:54:00,63.9,63.0,30.03,SSW,197,0.0,0.0,97,0.00,,,0.00,Wunderground v.1.15,2013-09-07 06:54:00,
2013-09-07 01:59:00,64.0,63.1,30.03,SSW,197,0.0,0.0,97,0.00,,,0.00,Wunderground v.1.15,2013-09-07 06:59:00,
2013-09-07 02:04:00,63.9,63.0,30.03,SSW,197,0.0,0.0,97,0.00,,,0.00,Wunderground v.1.15,2013-09-07 07:04:00,
2013-09-07 02:09:00,64.0,63.1,30.03,SSW,197,0.0,0.0,97,0.00,,,0.00,Wunderground v.1.15,2013-09-07 07:09:00,
2013-09-07 02:14:00,64.1,63.2,30.03,SSW,197,0.0,0.0,97,0.00,,,0.00,Wunderground v.1.15,2013-09-07 07:14:00,
2013-09-07 02:19:00,64.1,63.2,30.03,SSW,197,0.0,0.0,97,0.00,,,0.00,Wunderground v.1.15,2013-09-07 07:19:00,
2013-09-07 02:25:00,64.0,63.1,30.04,SSW,197,0.0,0.0,97,0.00,,,0.00,Wunderground v.1.15,2013-09-07 07:25:00,
2013-09-07 02:30:00,64.0,63.1,30.04,SSW,197,0.0,0.0,97,0.00,,,0.00,Wunderground v.1.15,2013-09-07 07:30:00,
2013-09-07 02:35:00,64.1,63.2,30.04,SSW,197,0.0,0.0,97,0.00,,,0.00,Wunderground v.1.15,2013-09-07 07:35:00,
2013-09-07 02:40:00,63.8,62.9,30.04,SSW,197,0.0,0.0,97,0.00,,,0.00,Wunderground v.1.15,2013-09-07 07:40:00,
2013-09-07 02:45:00,63.8,62.9,30.04,SSW,197,0.0,0.0,97,0.00,,,0.00,Wunderground v.1.15,2013-09-07 07:45:00,
2013-09-07 02:50:00,63.8,62.9,30.04,SSW,197,0.0,0.0,97,0.00,,,0.00,Wunderground v.1.15,2013-09-07 07:50:00,
2013-09-07 02:56:00,63.7,62.8,30.03,SSW,197,0.0,0.0,97,0.00,,,0.00,Wunderground v.1.15,2013-09-07 07:56:00,
2013-09-07 03:02:00,63.4,62.5,30.03,SSW,197,0.0,0.0,97,0.00,,,0.00,Wunderground v.1.15,2013-09-07 08:02:00,
2013-09-07 03:07:00,63.5,62.6,30.03,SSW,197,0.0,0.0,97,0.00,,,0.00,Wunderground v.1.15,2013-09-07 08:07:00,
2013-09-07 03:12:00,63.5,62.6,30.03,SSW,197,0.0,0.0,97,0.00,,,0.00,Wunderground v.1.15,2013-09-07 08:12:00,
2013-09-07 03:18:00,63.1,62.2,30.03,SSW,197,0.0,0.0,97,0.00,,,0.00,Wunderground v.1.15,2013-09-07 08:18:00,
2013-09-07 03:23:00,62.9,62.0,30.03,SSW,197,0.0,0.0,97,0.00,,,0.00,Wunderground v.1.15,2013-09-07 08:23:00,
2013-09-07 03:28:00,63.1,62.2,30.03,SSW,197,0.0,0.0,97,0.00,,,0.00,Wunderground v.1.15,2013-09-07 08:28:00,
2013-09-07 03:33:00,62.9,62.0,30.03,SSW,197,0.0,0.0,97,0.00,,,0.00,Wunderground v.1.15,2013-09-07 08:33:00,
2013-09-07 03:38:00,63.2,62.3,30.03,SSW,197,0.0,0.0,97,0.00,,,0.00,Wunderground v.1.15,2013-09-07 08:38:00,
2013-09-07 03:43:00,62.9,62.0,30.03,SSW,197,0.0,0.0,97,0.00,,,0.00,Wunderground v.1.15,2013-09-07 08:43:00,
2013-09-07 03:48:00,62.6,61.7,30.03,SSW,197,0.0,0.0,97,0.00,,,0.00,Wunderground v.1.15,2013-09-07 08:48:00,
2013-09-07 03:53:00,62.3,61.4,30.03,SSW,197,0.0,0.0,97,0.00,,,0.00,Wunderground v.1.15,2013-09-07 08:53:00,
2013-09-07 03:59:00,62.1,61.2,30.03,SSW,197,0.0,0.0,97,0.00,,,0.00,Wunderground v.1.15,2013-09-07 08:59:00,
2013-09-07 04:04:00,62.0,61.1,30.02,SSW,197,0.0,0.0,97,0.00,,,0.00,Wunderground v.1.15,2013-09-07 09:04:00,
2013-09-07 04:09:00,61.8,60.9,30.02,SSW,197,0.0,0.0,97,0.00,,,0.00,Wunderground v.1.15,2013-09-07 09:09:00,
2013-09-07 04:14:00,61.9,61.0,30.03,SSW,197,0.0,0.0,97,0.00,,,0.00,Wunderground v.1.15,2013-09-07 09:14:00,
2013-09-07 04:19:00,62.0,61.1,30.03,SSW,197,0.0,0.0,97,0.00,,,0.00,Wunderground v.1.15,2013-09-07 09:19:00,
2013-09-07 04:24:00,62.3,61.4,30.03,SSW,197,0.0,0.0,97,0.00,,,0.00,Wunderground v.1.15,2013-09-07 09:24:00,
2013-09-07 04:29:00,62.1,61.2,30.03,SSW,197,0.0,0.0,97,0.00,,,0.00,Wunderground v.1.15,2013-09-07 09:29:00,
2013-09-07 04:34:00,61.9,61.0,30.03,SSW,197,0.0,0.0,97,0.00,,,0.00,Wunderground v.1.15,2013-09-07 09:34:00,
2013-09-07 04:39:00,62.0,61.1,30.03,SSW,197,0.0,0.0,97,0.00,,,0.00,Wunderground v.1.15,2013-09-07 09:39:00,
2013-09-07 04:44:00,62.1,61.2,30.03,SSW,197,0.0,0.0,97,0.00,,,0.00,Wunderground v.1.15,2013-09-07 09:44:00,
2013-09-07 04:50:00,61.8,60.9,30.03,SSW,197,0.0,0.0,97,0.00,,,0.00,Wunderground v.1.15,2013-09-07 09:50:00,
2013-09-07 04:55:00,61.5,60.6,30.03,SSW,197,0.0,0.0,97,0.00,,,0.00,Wunderground v.1.15,2013-09-07 09:55:00,
2013-09-07 05:00:00,61.6,60.7,30.03,SSW,197,0.0,0.0,97,0.00,,,0.00,Wunderground v.1.15,2013-09-07 10:00:00,
2013-09-07 05:06:00,61.8,60.9,30.03,SSW,197,0.0,0.0,97,0.00,,,0.00,Wunderground v.1.15,2013-09-07 10:06:00,
2013-09-07 05:11:00,61.8,60.9,30.03,SSW,197,0.0,0.0,97,0.00,,,0.00,Wunderground v.1.15,2013-09-07 10:11:00,
2013-09-07 05:16:00,61.9,61.0,30.03,SSW,197,0.0,0.0,97,0.00,,,0.00,Wunderground v.1.15,2013-09-07 10:16:00,
2013-09-07 05:22:00,61.8,60.9,30.03,SSW,194,0.0,0.0,97,0.00,,,0.00,Wunderground v.1.15,2013-09-07 10:22:00,
2013-09-07 05:27:00,61.6,60.7,30.04,South,176,0.0,0.0,97,0.00,,,0.00,Wunderground v.1.15,2013-09-07 10:27:00,
2013-09-07 05:32:00,62.0,61.1,30.04,ENE,70,0.0,0.0,97,0.00,,,0.00,Wunderground v.1.15,2013-09-07 10:32:00,
2013-09-07 05:38:00,62.1,61.2,30.04,ENE,70,0.0,0.0,97,0.00,,,0.00,Wunderground v.1.15,2013-09-07 10:38:00,
2013-09-07 05:43:00,62.4,61.5,30.04,ENE,71,0.0,0.0,97,0.00,,,0.00,Wunderground v.1.15,2013-09-07 10:43:00,
2013-09-07 05:48:00,62.6,61.7,30.04,ENE,71,0.0,0.0,97,0.00,,,0.00,Wunderground v.1.15,2013-09-07 10:48:00,
2013-09-07 05:53:00,62.0,61.1,30.04,ENE,71,0.0,0.0,97,0.00,,,0.00,Wunderground v.1.15,2013-09-07 10:53:00,
2013-09-07 05:58:00,61.6,60.7,30.04,ENE,71,0.0,0.0,97,0.00,,,0.00,Wunderground v.1.15,2013-09-07 10:58:00,
2013-09-07 06:04:00,61.5,60.6,30.04,ENE,71,0.0,0.0,97,0.00,,,0.00,Wunderground v.1.15,2013-09-07 11:04:00,
2013-09-07 06:09:00,61.3,60.4,30.04,ENE,70,0.0,0.0,97,0.00,,,0.00,Wunderground v.1.15,2013-09-07 11:09:00,
2013-09-07 06:14:00,61.1,60.2,30.04,ENE,70,0.0,0.0,97,0.00,,,0.00,Wunderground v.1.15,2013-09-07 11:14:00,
2013-09-07 06:20:00,60.8,59.9,30.04,ENE,70,0.0,0.0,97,0.00,,,0.00,Wunderground v.1.15,2013-09-07 11:20:00,
2013-09-07 06:25:00,60.6,59.7,30.04,ENE,71,0.0,0.0,97,0.00,,,0.00,Wunderground v.1.15,2013-09-07 11:25:00,
2013-09-07 06:30:00,60.6,59.7,30.04,ENE,71,0.0,0.0,97,0.00,,,0.00,Wunderground v.1.15,2013-09-07 11:30:00,
2013-09-07 06:35:00,60.9,60.0,30.04,ENE,70,0.0,0.0,97,0.00,,,0.00,Wunderground v.1.15,2013-09-07 11:35:00,
2013-09-07 06:40:00,60.8,59.9,30.05,ENE,70,0.0,0.0,97,0.00,,,0.00,Wunderground v.1.15,2013-09-07 11:40:00,
2013-09-07 06:45:00,60.7,59.8,30.05,ENE,70,0.0,0.0,97,0.00,,,0.00,Wunderground v.1.15,2013-09-07 11:45:00,
2013-09-07 06:50:00,60.5,59.6,30.05,ENE,71,0.0,0.0,97,0.00,,,0.00,Wunderground v.1.15,2013-09-07 11:50:00,
2013-09-07 06:55:00,60.7,59.8,30.05,ENE,70,0.0,0.0,97,0.00,,,0.00,Wunderground v.1.15,2013-09-07 11:55:00,
2013-09-07 07:00:00,60.9,60.3,30.05,ENE,71,0.0,0.0,98,0.00,,,0.00,Wunderground v.1.15,2013-09-07 12:00:00,
2013-09-07 07:06:00,60.8,59.9,30.05,ENE,70,0.0,0.0,97,0.00,,,0.00,Wunderground v.1.15,2013-09-07 12:06:00,
2013-09-07 07:11:00,61.1,60.5,30.05,ENE,71,0.0,0.0,98,0.00,,,0.00,Wunderground v.1.15,2013-09-07 12:11:00,
2013-09-07 07:16:00,61.9,61.3,30.05,ENE,71,0.0,0.0,98,0.00,,,0.00,Wunderground v.1.15,2013-09-07 12:16:00,
2013-09-07 07:21:00,62.6,62.0,30.05,ENE,70,0.0,0.0,98,0.00,,,0.00,Wunderground v.1.15,2013-09-07 12:21:00,
2013-09-07 07:26:00,63.4,62.8,30.05,ENE,70,0.0,0.0,98,0.00,,,0.00,Wunderground v.1.15,2013-09-07 12:26:00,
2013-09-07 07:31:00,63.6,63.0,30.05,ENE,70,0.0,0.0,98,0.00,,,0.00,Wunderground v.1.15,2013-09-07 12:31:00,
2013-09-07 07:37:00,64.6,64.0,30.05,ENE,71,0.0,0.0,98,0.00,,,0.00,Wunderground v.1.15,2013-09-07 12:37:00,
2013-09-07 07:42:00,65.3,64.7,30.05,ENE,70,0.0,0.0,98,0.00,,,0.00,Wunderground v.1.15,2013-09-07 12:42:00,
2013-09-07 07:47:00,65.9,65.3,30.05,ENE,70,0.0,0.0,98,0.00,,,0.00,Wunderground v.1.15,2013-09-07 12:47:00,
2013-09-07 07:52:00,66.4,65.8,30.04,ENE,71,0.0,0.0,98,0.00,,,0.00,Wunderground v.1.15,2013-09-07 12:52:00,
2013-09-07 07:58:00,67.5,66.9,30.05,ENE,70,0.0,0.0,98,0.00,,,0.00,Wunderground v.1.15,2013-09-07 12:58:00,
2013-09-07 08:04:00,68.5,67.9,30.05,ENE,71,0.0,0.0,98,0.00,,,0.00,Wunderground v.1.15,2013-09-07 13:04:00,
2013-09-07 08:09:00,68.7,68.1,30.04,ENE,70,0.0,0.0,98,0.00,,,0.00,Wunderground v.1.15,2013-09-07 13:09:00,
2013-09-07 08:14:00,69.2,68.6,30.04,ENE,70,0.0,0.0,98,0.00,,,0.00,Wunderground v.1.15,2013-09-07 13:14:00,
2013-09-07 08:19:00,69.7,69.1,30.04,ENE,70,0.0,0.0,98,0.00,,,0.00,Wunderground v.1.15,2013-09-07 13:19:00,
2013-09-07 08:24:00,70.7,70.1,30.04,SE,139,0.0,0.0,98,0.00,,,0.00,Wunderground v.1.15,2013-09-07 13:24:00,
2013-09-07 08:29:00,70.9,70.0,30.04,SW,232,0.0,0.0,97,0.00,,,0.00,Wunderground v.1.15,2013-09-07 13:29:00,
2013-09-07 08:34:00,71.3,70.4,30.04,SSE,167,0.0,0.0,97,0.00,,,0.00,Wunderground v.1.15,2013-09-07 13:34:00,
2013-09-07 08:40:00,72.0,70.8,30.04,SSE,148,0.0,0.0,96,0.00,,,0.00,Wunderground v.1.15,2013-09-07 13:40:00,
2013-09-07 08:45:00,72.4,70.9,30.03,South,169,0.0,2.0,95,0.00,,,0.00,Wunderground v.1.15,2013-09-07 13:45:00,
2013-09-07 08:50:00,72.9,71.1,30.03,SSE,159,0.0,0.0,94,0.00,,,0.00,Wunderground v.1.15,2013-09-07 13:50:00,
2013-09-07 08:55:00,73.6,71.4,30.04,SSW,192,0.0,1.0,93,0.00,,,0.00,Wunderground v.1.15,2013-09-07 13:55:00,
2013-09-07 09:00:00,74.2,71.4,30.03,SSW,212,0.0,1.0,91,0.00,,,0.00,Wunderground v.1.15,2013-09-07 14:00:00,
2013-09-07 09:06:00,74.9,71.8,30.04,West,274,0.0,2.0,90,0.00,,,0.00,Wunderground v.1.15,2013-09-07 14:06:00,
2013-09-07 09:11:00,75.3,71.8,30.03,WNW,290,0.0,3.0,89,0.00,,,0.00,Wunderground v.1.15,2013-09-07 14:11:00,
2013-09-07 09:16:00,75.6,71.5,30.04,West,266,1.0,5.0,87,0.00,,,0.00,Wunderground v.1.15,2013-09-07 14:16:00,
2013-09-07 09:22:00,76.0,71.2,30.04,West,270,2.0,3.0,85,0.00,,,0.00,Wunderground v.1.15,2013-09-07 14:22:00,
2013-09-07 09:27:00,76.4,71.2,30.05,WSW,256,1.0,3.0,84,0.00,,,0.00,Wunderground v.1.15,2013-09-07 14:27:00,
2013-09-07 09:33:00,76.9,71.7,30.05,West,277,1.0,1.0,84,0.00,,,0.00,Wunderground v.1.15,2013-09-07 14:33:00,
2013-09-07 09:38:00,77.2,71.3,30.05,WNW,297,2.0,5.0,82,0.00,,,0.00,Wunderground v.1.15,2013-09-07 14:38:00,
2013-09-07 09:43:00,77.4,71.1,30.05,WNW,287,3.0,4.0,81,0.00,,,0.00,Wunderground v.1.15,2013-09-07 14:43:00,
2013-09-07 09:48:00,77.6,71.3,30.05,WNW,294,3.0,4.0,81,0.00,,,0.00,Wunderground v.1.15,2013-09-07 14:48:00,
2013-09-07 09:53:00,77.9,71.6,30.05,WNW,290,3.0,3.0,81,0.00,,,0.00,Wunderground v.1.15,2013-09-07 14:53:00,
2013-09-07 09:58:00,78.3,72.0,30.05,WSW,238,2.0,3.0,81,0.00,,,0.00,Wunderground v.1.15,2013-09-07 14:58:00,
2013-09-07 10:04:00,78.9,71.5,30.05,SSW,197,2.0,4.0,78,0.00,,,0.00,Wunderground v.1.15,2013-09-07 15:04:00,
2013-09-07 10:09:00,79.3,71.5,30.04,West,280,3.0,5.0,77,0.00,,,0.00,Wunderground v.1.15,2013-09-07 15:09:00,
2013-09-07 10:14:00,79.8,71.6,30.04,West,266,3.0,5.0,76,0.00,,,0.00,Wunderground v.1.15,2013-09-07 15:14:00,
2013-09-07 10:19:00,80.0,71.4,30.05,WSW,246,3.0,5.0,75,0.00,,,0.00,Wunderground v.1.15,2013-09-07 15:19:00,
2013-09-07 10:24:00,80.1,72.6,30.05,SW,226,3.0,4.0,78,0.00,,,0.00,Wunderground v.1.15,2013-09-07 15:24:00,
2013-09-07 10:29:00,80.4,71.7,30.04,WNW,288,3.0,7.0,75,0.00,,,0.00,Wunderground v.1.15,2013-09-07 15:29:00,
2013-09-07 10:34:00,80.6,71.5,30.04,West,281,3.0,5.0,74,0.00,,,0.00,Wunderground v.1.15,2013-09-07 15:34:00,
2013-09-07 10:39:00,80.8,71.7,30.04,WSW,255,3.0,6.0,74,0.00,,,0.00,Wunderground v.1.15,2013-09-07 15:39:00,
2013-09-07 10:44:00,81.4,72.3,30.04,West,260,3.0,5.0,74,0.00,,,0.00,Wunderground v.1.15,2013-09-07 15:44:00,
2013-09-07 10:49:00,81.6,71.3,30.04,SW,228,4.0,7.0,71,0.00,,,0.00,Wunderground v.1.15,2013-09-07 15:49:00,
2013-09-07 10:55:00,81.9,71.6,30.04,West,262,5.0,7.0,71,0.00,,,0.00,Wunderground v.1.15,2013-09-07 15:55:00,
2013-09-07 11:00:00,82.1,70.9,30.04,WSW,250,5.0,6.0,69,0.00,,,0.00,Wunderground v.1.15,2013-09-07 16:00:00,
2013-09-07 11:06:00,82.5,70.4,30.04,West,281,5.0,6.0,67,0.00,,,0.00,Wunderground v.1.15,2013-09-07 16:06:00,
2013-09-07 11:12:00,82.7,70.6,30.04,West,277,5.0,5.0,67,0.00,,,0.00,Wunderground v.1.15,2013-09-07 16:12:00,
2013-09-07 11:17:00,82.6,71.4,30.04,West,276,4.0,5.0,69,0.00,,,0.00,Wunderground v.1.15,2013-09-07 16:17:00,
2013-09-07 11:22:00,83.0,71.3,30.04,WNW,294,3.0,6.0,68,0.00,,,0.00,Wunderground v.1.15,2013-09-07 16:22:00,
2013-09-07 11:27:00,83.5,72.3,30.04,NW,306,3.0,7.0,69,0.00,,,0.00,Wunderground v.1.15,2013-09-07 16:27:00,
2013-09-07 11:33:00,83.7,71.1,30.04,WSW,252,4.0,5.0,66,0.00,,,0.00,Wunderground v.1.15,2013-09-07 16:33:00,
2013-09-07 11:39:00,83.6,71.5,30.04,WSW,246,4.0,5.0,67,0.00,,,0.00,Wunderground v.1.15,2013-09-07 16:39:00,
2013-09-07 11:44:00,84.0,71.0,30.04,SW,228,3.0,4.0,65,0.00,,,0.00,Wunderground v.1.15,2013-09-07 16:44:00,
2013-09-07 11:49:00,84.2,70.2,30.03,WNW,290,4.0,5.0,63,0.00,,,0.00,Wunderground v.1.15,2013-09-07 16:49:00,
2013-09-07 11:54:00,84.2,69.3,30.03,WSW,250,4.0,6.0,61,0.00,,,0.00,Wunderground v.1.15,2013-09-07 16:54:00,
2013-09-07 11:59:00,84.3,69.9,30.03,West,281,3.0,7.0,62,0.00,,,0.00,Wunderground v.1.15,2013-09-07 16:59:00,
2013-09-07 12:05:00,84.7,70.7,30.03,NW,304,3.0,6.0,63,0.00,,,0.00,Wunderground v.1.15,2013-09-07 17:05:00,
2013-09-07 12:10:00,85.0,70.0,30.02,West,280,4.0,5.0,61,0.00,,,0.00,Wunderground v.1.15,2013-09-07 17:10:00,
2013-09-07 12:15:00,85.0,69.6,30.02,WNW,294,4.0,8.0,60,0.00,,,0.00,Wunderground v.1.15,2013-09-07 17:15:00,
2013-09-07 12:20:00,85.2,69.3,30.02,West,273,4.0,6.0,59,0.00,,,0.00,Wunderground v.1.15,2013-09-07 17:20:00,
2013-09-07 12:25:00,85.2,69.3,30.02,WNW,288,5.0,7.0,59,0.00,,,0.00,Wunderground v.1.15,2013-09-07 17:25:00,
2013-09-07 12:30:00,85.2,69.7,30.02,WNW,283,5.0,5.0,60,0.00,,,0.00,Wunderground v.1.15,2013-09-07 17:30:00,
2013-09-07 12:35:00,85.2,70.2,30.01,West,269,4.0,6.0,61,0.00,,,0.00,Wunderground v.1.15,2013-09-07 17:35:00,
2013-09-07 12:40:00,85.1,69.2,30.01,WNW,289,3.0,6.0,59,0.00,,,0.00,Wunderground v.1.15,2013-09-07 17:40:00,
2013-09-07 12:45:00,85.0,69.6,30.01,WNW,297,5.0,8.0,60,0.00,,,0.00,Wunderground v.1.15,2013-09-07 17:45:00,
2013-09-07 12:51:00,84.7,69.8,30.01,West,276,4.0,5.0,61,0.00,,,0.00,Wunderground v.1.15,2013-09-07 17:51:00,
2013-09-07 12:56:00,85.0,70.0,30.01,WNW,289,3.0,5.0,61,0.00,,,0.00,Wunderground v.1.15,2013-09-07 17:56:00,
2013-09-07 13:01:00,85.5,70.0,30.00,WNW,293,2.0,4.0,60,0.00,,,0.00,Wunderground v.1.15,2013-09-07 18:01:00,
2013-09-07 13:06:00,85.8,70.8,30.00,WSW,243,3.0,4.0,61,0.00,,,0.00,Wunderground v.1.15,2013-09-07 18:06:00,
2013-09-07 13:12:00,86.1,69.6,29.99,WNW,285,3.0,5.0,58,0.00,,,0.00,Wunderground v.1.15,2013-09-07 18:12:00,
2013-09-07 13:17:00,86.1,69.6,29.99,South,172,4.0,5.0,58,0.00,,,0.00,Wunderground v.1.15,2013-09-07 18:17:00,
2013-09-07 13:22:00,86.4,70.4,29.99,SW,228,3.0,4.0,59,0.00,,,0.00,Wunderground v.1.15,2013-09-07 18:22:00,
2013-09-07 13:27:00,86.4,70.4,29.99,South,175,3.0,4.0,59,0.00,,,0.00,Wunderground v.1.15,2013-09-07 18:27:00,
2013-09-07 13:32:00,86.5,70.5,29.98,WNW,298,3.0,7.0,59,0.00,,,0.00,Wunderground v.1.15,2013-09-07 18:32:00,
2013-09-07 13:37:00,86.3,68.8,29.98,West,278,4.0,7.0,56,0.00,,,0.00,Wunderground v.1.15,2013-09-07 18:37:00,
2013-09-07 13:42:00,86.3,70.3,29.98,South,179,4.0,5.0,59,0.00,,,0.00,Wunderground v.1.15,2013-09-07 18:42:00,
2013-09-07 13:47:00,86.3,70.3,29.98,SSW,211,3.0,5.0,59,0.00,,,0.00,Wunderground v.1.15,2013-09-07 18:47:00,
2013-09-07 13:53:00,86.2,69.7,29.98,WSW,248,3.0,4.0,58,0.00,,,0.00,Wunderground v.1.15,2013-09-07 18:53:00,
2013-09-07 13:58:00,86.3,69.8,29.98,West,278,3.0,5.0,58,0.00,,,0.00,Wunderground v.1.15,2013-09-07 18:58:00,
2013-09-07 14:03:00,86.3,69.3,29.97,WNW,290,3.0,6.0,57,0.00,,,0.00,Wunderground v.1.15,2013-09-07 19:03:00,
2013-09-07 14:09:00,86.1,69.6,29.97,WSW,255,3.0,6.0,58,0.00,,,0.00,Wunderground v.1.15,2013-09-07 19:09:00,
2013-09-07 14:14:00,86.4,70.4,29.97,SE,135,2.0,3.0,59,0.00,,,0.00,Wunderground v.1.15,2013-09-07 19:14:00,
2013-09-07 14:19:00,87.2,70.6,29.96,WNW,284,2.0,6.0,58,0.00,,,0.00,Wunderground v.1.15,2013-09-07 19:19:00,
2013-09-07 14:24:00,87.0,69.9,29.96,SW,226,4.0,6.0,57,0.00,,,0.00,Wunderground v.1.15,2013-09-07 19:24:00,
2013-09-07 14:29:00,86.9,71.3,29.96,SSW,204,3.0,6.0,60,0.00,,,0.00,Wunderground v.1.15,2013-09-07 19:29:00,
2013-09-07 14:34:00,87.3,68.6,29.95,WSW,245,2.0,6.0,54,0.00,,,0.00,Wunderground v.1.15,2013-09-07 19:34:00,
2013-09-07 14:40:00,87.3,69.7,29.95,WNW,291,4.0,6.0,56,0.00,,,0.00,Wunderground v.1.15,2013-09-07 19:40:00,
2013-09-07 14:45:00,87.3,70.2,29.95,WSW,252,3.0,6.0,57,0.00,,,0.00,Wunderground v.1.15,2013-09-07 19:45:00,
2013-09-07 14:50:00,87.4,69.8,29.94,West,280,4.0,5.0,56,0.00,,,0.00,Wunderground v.1.15,2013-09-07 19:50:00,
2013-09-07 14:55:00,87.5,70.4,29.94,West,260,4.0,5.0,57,0.00,,,0.00,Wunderground v.1.15,2013-09-07 19:55:00,
2013-09-07 15:00:00,87.7,69.0,29.94,WNW,285,4.0,8.0,54,0.00,,,0.00,Wunderground v.1.15,2013-09-07 20:00:00,
2013-09-07 15:06:00,87.8,71.7,29.94,West,264,5.0,8.0,59,0.00,,,0.00,Wunderground v.1.15,2013-09-07 20:06:00,
2013-09-07 15:11:00,87.8,69.6,29.94,ESE,123,3.0,4.0,55,0.00,,,0.00,Wunderground v.1.15,2013-09-07 20:11:00,
2013-09-07 15:16:00,87.8,70.1,29.93,WSW,245,3.0,4.0,56,0.00,,,0.00,Wunderground v.1.15,2013-09-07 20:16:00,
2013-09-07 15:21:00,88.0,70.3,29.93,WSW,246,3.0,3.0,56,0.00,,,0.00,Wunderground v.1.15,2013-09-07 20:21:00,
2013-09-07 15:26:00,88.0,68.7,29.93,South,191,3.0,7.0,53,0.00,,,0.00,Wunderground v.1.15,2013-09-07 20:26:00,
2013-09-07 15:32:00,88.1,68.8,29.93,WNW,288,3.0,6.0,53,0.00,,,0.00,Wunderground v.1.15,2013-09-07 20:32:00,
2013-09-07 15:38:00,88.0,70.3,29.93,WSW,246,2.0,6.0,56,0.00,,,0.00,Wunderground v.1.15,2013-09-07 20:38:00,
2013-09-07 15:43:00,88.1,69.4,29.93,WNW,284,3.0,5.0,54,0.00,,,0.00,Wunderground v.1.15,2013-09-07 20:43:00,
2013-09-07 15:48:00,88.1,69.4,29.93,WNW,284,4.0,6.0,54,0.00,,,0.00,Wunderground v.1.15,2013-09-07 20:48:00,
2013-09-07 15:53:00,88.1,69.9,29.93,WSW,258,4.0,4.0,55,0.00,,,0.00,Wunderground v.1.15,2013-09-07 20:53:00,
2013-09-07 15:58:00,88.1,70.4,29.93,WNW,283,3.0,5.0,56,0.00,,,0.00,Wunderground v.1.15,2013-09-07 20:58:00,
2013-09-07 16:04:00,88.2,69.5,29.93,WNW,285,3.0,4.0,54,0.00,,,0.00,Wunderground v.1.15,2013-09-07 21:04:00,
2013-09-07 16:09:00,88.2,70.0,29.93,West,279,2.0,4.0,55,0.00,,,0.00,Wunderground v.1.15,2013-09-07 21:09:00,
2013-09-07 16:14:00,88.6,70.9,29.93,SSW,207,2.0,2.0,56,0.00,,,0.00,Wunderground v.1.15,2013-09-07 21:14:00,
2013-09-07 16:19:00,88.6,70.4,29.93,WNW,284,2.0,3.0,55,0.00,,,0.00,Wunderground v.1.15,2013-09-07 21:19:00,
2013-09-07 16:24:00,88.7,71.5,29.93,SSW,202,2.0,3.0,57,0.00,,,0.00,Wunderground v.1.15,2013-09-07 21:24:00,
2013-09-07 16:29:00,88.4,70.2,29.93,WNW,283,2.0,4.0,55,0.00,,,0.00,Wunderground v.1.15,2013-09-07 21:29:00,
2013-09-07 16:34:00,88.4,71.7,29.93,SSW,198,2.0,2.0,58,0.00,,,0.00,Wunderground v.1.15,2013-09-07 21:34:00,
2013-09-07 16:40:00,89.0,72.8,29.93,SSE,153,1.0,1.0,59,0.00,,,0.00,Wunderground v.1.15,2013-09-07 21:40:00,
2013-09-07 16:45:00,89.6,71.3,29.93,WSW,238,1.0,3.0,55,0.00,,,0.00,Wunderground v.1.15,2013-09-07 21:45:00,
2013-09-07 16:50:00,89.3,70.5,29.93,WNW,288,1.0,3.0,54,0.00,,,0.00,Wunderground v.1.15,2013-09-07 21:50:00,
2013-09-07 16:55:00,88.8,70.5,29.93,West,267,2.0,4.0,55,0.00,,,0.00,Wunderground v.1.15,2013-09-07 21:55:00,
2013-09-07 17:00:00,89.0,71.8,29.92,WSW,249,1.0,2.0,57,0.00,,,0.00,Wunderground v.1.15,2013-09-07 22:00:00,
2013-09-07 17:06:00,89.0,70.7,29.92,WSW,255,1.0,2.0,55,0.00,,,0.00,Wunderground v.1.15,2013-09-07 22:06:00,
2013-09-07 17:11:00,88.8,70.5,29.92,SW,233,1.0,2.0,55,0.00,,,0.00,Wunderground v.1.15,2013-09-07 22:11:00,
2013-09-07 17:16:00,88.7,70.5,29.93,WSW,240,1.0,2.0,55,0.00,,,0.00,Wunderground v.1.15,2013-09-07 22:16:00,
2013-09-07 17:22:00,88.9,71.7,29.93,SSW,210,1.0,1.0,57,0.00,,,0.00,Wunderground v.1.15,2013-09-07 22:22:00,
2013-09-07 17:27:00,89.1,72.4,29.93,SW,214,0.0,1.0,58,0.00,,,0.00,Wunderground v.1.15,2013-09-07 22:27:00,
2013-09-07 17:32:00,89.2,71.5,29.92,WSW,252,0.0,2.0,56,0.00,,,0.00,Wunderground v.1.15,2013-09-07 22:32:00,
2013-09-07 17:38:00,89.1,70.8,29.92,South,186,1.0,3.0,55,0.00,,,0.00,Wunderground v.1.15,2013-09-07 22:38:00,
2013-09-07 17:43:00,89.0,71.3,29.92,West,271,0.0,2.0,56,0.00,,,0.00,Wunderground v.1.15,2013-09-07 22:43:00,
2013-09-07 17:48:00,88.7,71.5,29.92,SW,227,1.0,2.0,57,0.00,,,0.00,Wunderground v.1.15,2013-09-07 22:48:00,
2013-09-07 17:53:00,88.7,71.0,29.92,West,259,1.0,2.0,56,0.00,,,0.00,Wunderground v.1.15,2013-09-07 22:53:00,
2013-09-07 17:58:00,88.2,71.0,29.92,WSW,257,1.0,3.0,57,0.00,,,0.00,Wunderground v.1.15,2013-09-07 22:58:00,
2013-09-07 18:04:00,87.7,70.6,29.92,WSW,238,0.0,1.0,57,0.00,,,0.00,Wunderground v.1.15,2013-09-07 23:04:00,
2013-09-07 18:09:00,87.5,71.4,29.92,SSE,157,0.0,1.0,59,0.00,,,0.00,Wunderground v.1.15,2013-09-07 23:09:00,
2013-09-07 18:14:00,87.7,71.6,29.92,SW,218,0.0,0.0,59,0.00,,,0.00,Wunderground v.1.15,2013-09-07 23:14:00,
2013-09-07 18:19:00,88.0,72.4,29.92,SW,217,0.0,0.0,60,0.00,,,0.00,Wunderground v.1.15,2013-09-07 23:19:00,
2013-09-07 18:24:00,87.3,72.2,29.92,SW,217,0.0,0.0,61,0.00,,,0.00,Wunderground v.1.15,2013-09-07 23:24:00,
2013-09-07 18:30:00,85.1,72.5,29.92,SW,217,0.0,0.0,66,0.00,,,0.00,Wunderground v.1.15,2013-09-07 23:30:00,
2013-09-07 18:35:00,83.6,71.9,29.92,SW,217,0.0,0.0,68,0.00,,,0.00,Wunderground v.1.15,2013-09-07 23:35:00,
2013-09-07 18:40:00,82.8,72.4,29.92,SSW,210,0.0,0.0,71,0.00,,,0.00,Wunderground v.1.15,2013-09-07 23:40:00,
2013-09-07 18:45:00,81.7,73.0,29.92,SSW,211,0.0,0.0,75,0.00,,,0.00,Wunderground v.1.15,2013-09-07 23:45:00,
2013-09-07 18:50:00,80.8,72.5,29.93,SSW,211,0.0,0.0,76,0.00,,,0.00,Wunderground v.1.15,2013-09-07 23:50:00,
2013-09-07 18:56:00,79.9,71.7,29.92,ESE,123,0.0,0.0,76,0.00,,,0.00,Wunderground v.1.15,2013-09-07 23:56:00,
2013-09-07 19:02:00,78.8,71.0,29.93,ESE,123,0.0,0.0,77,0.00,,,0.00,Wunderground v.1.15,2013-09-08 00:02:00,
2013-09-07 19:07:00,78.0,71.0,29.93,ESE,123,0.0,0.0,79,0.00,,,0.00,Wunderground v.1.15,2013-09-08 00:07:00,
2013-09-07 19:13:00,77.2,70.9,29.93,ESE,123,0.0,0.0,81,0.00,,,0.00,Wunderground v.1.15,2013-09-08 00:13:00,
2013-09-07 19:18:00,76.8,71.2,29.93,ESE,123,0.0,0.0,83,0.00,,,0.00,Wunderground v.1.15,2013-09-08 00:18:00,
2013-09-07 19:23:00,76.4,71.6,29.93,ESE,122,0.0,0.0,85,0.00,,,0.00,Wunderground v.1.15,2013-09-08 00:23:00,
2013-09-07 19:28:00,76.1,71.6,29.93,ESE,123,0.0,0.0,86,0.00,,,0.00,Wunderground v.1.15,2013-09-08 00:28:00,
2013-09-07 19:34:00,75.6,71.1,29.93,ESE,123,0.0,0.0,86,0.00,,,0.00,Wunderground v.1.15,2013-09-08 00:34:00,
2013-09-07 19:39:00,75.2,70.4,29.93,ESE,122,0.0,0.0,85,0.00,,,0.00,Wunderground v.1.15,2013-09-08 00:39:00,
2013-09-07 19:44:00,75.0,70.5,29.93,ESE,122,0.0,0.0,86,0.00,,,0.00,Wunderground v.1.15,2013-09-08 00:44:00,
2013-09-07 19:49:00,74.7,70.6,29.93,ESE,123,0.0,0.0,87,0.00,,,0.00,Wunderground v.1.15,2013-09-08 00:49:00,
2013-09-07 19:55:00,74.6,70.5,29.93,ESE,123,0.0,0.0,87,0.00,,,0.00,Wunderground v.1.15,2013-09-08 00:55:00,
2013-09-07 20:00:00,74.4,70.3,29.93,ESE,122,0.0,0.0,87,0.00,,,0.00,Wunderground v.1.15,2013-09-08 01:00:00,
2013-09-07 20:06:00,74.1,70.3,29.93,ESE,122,0.0,0.0,88,0.00,,,0.00,Wunderground v.1.15,2013-09-08 01:06:00,
2013-09-07 20:11:00,73.9,70.1,29.93,ESE,123,0.0,0.0,88,0.00,,,0.00,Wunderground v.1.15,2013-09-08 01:11:00,
2013-09-07 20:16:00,73.6,70.2,29.93,ESE,122,0.0,0.0,89,0.00,,,0.00,Wunderground v.1.15,2013-09-08 01:16:00,
2013-09-07 20:21:00,73.5,70.1,29.93,ESE,122,0.0,0.0,89,0.00,,,0.00,Wunderground v.1.15,2013-09-08 01:21:00,
2013-09-07 20:26:00,73.3,69.9,29.93,ESE,122,0.0,0.0,89,0.00,,,0.00,Wunderground v.1.15,2013-09-08 01:26:00,
2013-09-07 20:32:00,73.2,70.1,29.93,ESE,123,0.0,0.0,90,0.00,,,0.00,Wunderground v.1.15,2013-09-08 01:32:00,
2013-09-07 20:37:00,73.1,70.0,29.93,ESE,122,0.0,0.0,90,0.00,,,0.00,Wunderground v.1.15,2013-09-08 01:37:00,
2013-09-07 20:42:00,72.9,69.8,29.94,ESE,122,0.0,0.0,90,0.00,,,0.00,Wunderground v.1.15,2013-09-08 01:42:00,
2013-09-07 20:47:00,72.7,69.6,29.93,ESE,123,0.0,0.0,90,0.00,,,0.00,Wunderground v.1.15,2013-09-08 01:47:00,
2013-09-07 20:52:00,72.5,69.7,29.93,ESE,122,0.0,0.0,91,0.00,,,0.00,Wunderground v.1.15,2013-09-08 01:52:00,
2013-09-07 20:57:00,72.4,69.6,29.94,ESE,123,0.0,0.0,91,0.00,,,0.00,Wunderground v.1.15,2013-09-08 01:57:00,
2013-09-07 21:03:00,72.3,69.5,29.94,ESE,123,0.0,0.0,91,0.00,,,0.00,Wunderground v.1.15,2013-09-08 02:03:00,
2013-09-07 21:08:00,72.0,69.2,29.94,ESE,122,0.0,0.0,91,0.00,,,0.00,Wunderground v.1.15,2013-09-08 02:08:00,
2013-09-07 21:13:00,71.7,68.9,29.93,ESE,123,0.0,0.0,91,0.00,,,0.00,Wunderground v.1.15,2013-09-08 02:13:00,
2013-09-07 21:18:00,71.5,68.7,29.93,ESE,123,0.0,0.0,91,0.00,,,0.00,Wunderground v.1.15,2013-09-08 02:18:00,
2013-09-07 21:24:00,71.5,69.1,29.94,ESE,123,0.0,0.0,92,0.00,,,0.00,Wunderground v.1.15,2013-09-08 02:24:00,
2013-09-07 21:29:00,71.3,68.9,29.94,ESE,123,0.0,0.0,92,0.00,,,0.00,Wunderground v.1.15,2013-09-08 02:29:00,
2013-09-07 21:34:00,71.2,68.8,29.94,ESE,122,0.0,0.0,92,0.00,,,0.00,Wunderground v.1.15,2013-09-08 02:34:00,
2013-09-07 21:39:00,71.1,68.7,29.94,ESE,123,0.0,0.0,92,0.00,,,0.00,Wunderground v.1.15,2013-09-08 02:39:00,
2013-09-07 21:44:00,71.1,69.0,29.94,ESE,123,0.0,0.0,93,0.00,,,0.00,Wunderground v.1.15,2013-09-08 02:44:00,
2013-09-07 21:50:00,71.2,69.1,29.94,ESE,123,0.0,0.0,93,0.00,,,0.00,Wunderground v.1.15,2013-09-08 02:50:00,
2013-09-07 21:55:00,71.1,69.0,29.94,ESE,123,0.0,0.0,93,0.00,,,0.00,Wunderground v.1.15,2013-09-08 02:55:00,
2013-09-07 22:00:00,70.9,68.8,29.93,ESE,122,0.0,0.0,93,0.00,,,0.00,Wunderground v.1.15,2013-09-08 03:00:00,
2013-09-07 22:06:00,70.9,68.8,29.93,ESE,122,0.0,0.0,93,0.00,,,0.00,Wunderground v.1.15,2013-09-08 03:06:00,
2013-09-07 22:11:00,70.8,68.7,29.93,ESE,123,0.0,0.0,93,0.00,,,0.00,Wunderground v.1.15,2013-09-08 03:11:00,
2013-09-07 22:16:00,70.6,68.5,29.93,ESE,123,0.0,0.0,93,0.00,,,0.00,Wunderground v.1.15,2013-09-08 03:16:00,
2013-09-07 22:21:00,70.4,68.3,29.93,ESE,123,0.0,0.0,93,0.00,,,0.00,Wunderground v.1.15,2013-09-08 03:21:00,
2013-09-07 22:26:00,70.3,68.5,29.93,ESE,122,0.0,0.0,94,0.00,,,0.00,Wunderground v.1.15,2013-09-08 03:26:00,
2013-09-07 22:32:00,70.2,68.4,29.93,ESE,123,0.0,0.0,94,0.00,,,0.00,Wunderground v.1.15,2013-09-08 03:32:00,
2013-09-07 22:37:00,70.3,68.5,29.93,ESE,123,0.0,0.0,94,0.00,,,0.00,Wunderground v.1.15,2013-09-08 03:37:00,
2013-09-07 22:42:00,70.3,68.5,29.93,ESE,123,0.0,0.0,94,0.00,,,0.00,Wunderground v.1.15,2013-09-08 03:42:00,
2013-09-07 22:47:00,70.3,68.5,29.93,ESE,123,0.0,0.0,94,0.00,,,0.00,Wunderground v.1.15,2013-09-08 03:47:00,
2013-09-07 22:53:00,70.2,68.4,29.93,ESE,123,0.0,0.0,94,0.00,,,0.00,Wunderground v.1.15,2013-09-08 03:53:00,
2013-09-07 22:58:00,70.0,68.2,29.93,ESE,123,0.0,0.0,94,0.00,,,0.00,Wunderground v.1.15,2013-09-08 03:58:00,
2013-09-07 23:01:00,70.0,68.2,29.93,ESE,122,0.0,0.0,94,0.00,,,0.00,Wunderground v.1.15,2013-09-08 04:01:00,
2013-09-07 23:03:00,69.9,68.1,29.93,ESE,122,0.0,0.0,94,0.00,,,0.00,Wunderground v.1.15,2013-09-08 04:03:00,
2013-09-07 23:05:00,69.9,68.1,29.93,ESE,123,0.0,0.0,94,0.00,,,0.00,Wunderground v.1.15,2013-09-08 04:05:00,
2013-09-07 23:06:00,69.9,68.1,29.93,ESE,122,0.0,0.0,94,0.00,,,0.00,Wunderground v.1.15,2013-09-08 04:06:00,
2013-09-07 23:07:00,69.9,68.1,29.93,ESE,123,0.0,0.0,94,0.00,,,0.00,Wunderground v.1.15,2013-09-08 04:07:00,
2013-09-07 23:12:00,69.8,68.0,29.93,ESE,122,0.0,0.0,94,0.00,,,0.00,Wunderground v.1.15,2013-09-08 04:12:00,
2013-09-07 23:17:00,69.9,68.1,29.93,ESE,122,0.0,0.0,94,0.00,,,0.00,Wunderground v.1.15,2013-09-08 04:17:00,
2013-09-07 23:22:00,69.9,68.1,29.93,ESE,122,0.0,0.0,94,0.00,,,0.00,Wunderground v.1.15,2013-09-08 04:22:00,
2013-09-07 23:27:00,69.8,68.0,29.93,ESE,123,0.0,0.0,94,0.00,,,0.00,Wunderground v.1.15,2013-09-08 04:27:00,
2013-09-07 23:33:00,69.6,67.8,29.93,ESE,122,0.0,0.0,94,0.00,,,0.00,Wunderground v.1.15,2013-09-08 04:33:00,
2013-09-07 23:38:00,69.3,67.5,29.92,ESE,123,0.0,0.0,94,0.00,,,0.00,Wunderground v.1.15,2013-09-08 04:38:00,
2013-09-07 23:42:00,69.1,67.3,29.92,ESE,123,0.0,0.0,94,0.00,,,0.00,Wunderground v.1.15,2013-09-08 04:42:00,
2013-09-07 23:47:00,69.2,67.7,29.92,ESE,122,0.0,0.0,95,0.00,,,0.00,Wunderground v.1.15,2013-09-08 04:47:00,
2013-09-07 23:52:00,69.2,67.7,29.92,ESE,123,0.0,0.0,95,0.00,,,0.00,Wunderground v.1.15,2013-09-08 04:52:00,
2013-09-07 23:57:00,69.2,67.7,29.92,ESE,123,0.0,0.0,95,0.00,,,0.00,Wunderground v.1.15,2013-09-08 04:57:00,